Time;durP1;ratioP1;P1;durP2;ratioP2;P2;SDS_P1;SDS_P2;PMS_P1;PMS_P2;Temp;Humidity;BMP_temperature;BMP_pressure;BME280_temperature;BME280_humidity;BME280_pressure;Samples;Min_cycle;Max_cycle;Signal;HPM_P1;HPM_P2
2023/01/06 00:00:18;;;;;;;3.60;1.50;;;;;;;4.01;95.01;98979.65;213870;1302;22499;-75
2023/01/06 00:05:20;;;;;;;3.90;1.10;;;;;;;3.92;94.89;98982.99;213983;1310;25271;-76
2023/01/06 00:10:23;;;;;;;2.00;0.90;;;;;;;3.79;94.70;98985.17;213927;1310;22525;-75
2023/01/06 00:15:25;;;;;;;1.90;0.80;;;;;;;3.67;94.46;98986.13;214153;1310;25220;-75
2023/01/06 00:20:27;;;;;;;4.10;0.90;;;;;;;3.54;94.60;98987.27;213969;1310;23691;-75
2023/01/06 00:25:29;;;;;;;3.60;1.50;;;;;;;3.43;94.44;98988.27;214195;1310;22471;-74
2023/01/06 00:30:31;;;;;;;2.90;1.30;;;;;;;3.32;94.21;98992.36;213946;1310;22725;-74
2023/01/06 00:35:33;;;;;;;2.00;1.20;;;;;;;3.24;94.25;99006.92;213964;1307;23080;-75
2023/01/06 00:40:36;;;;;;;3.70;1.30;;;;;;;3.18;94.44;99009.67;214080;1310;22496;-75
2023/01/06 00:45:37;;;;;;;2.60;1.10;;;;;;;3.12;94.43;99016.85;214073;1310;25269;-77
2023/01/06 00:50:39;;;;;;;4.60;1.20;;;;;;;3.02;94.08;99025.48;214106;1310;22469;-75
2023/01/06 00:55:41;;;;;;;2.50;1.20;;;;;;;2.95;94.16;99041.74;214046;1310;22490;-75
2023/01/06 01:00:43;;;;;;;1.20;0.90;;;;;;;2.88;94.31;99049.23;213925;1312;22464;-74
2023/01/06 01:05:44;;;;;;;4.70;1.60;;;;;;;2.82;94.21;99057.94;213776;1311;24841;-75
2023/01/06 01:10:46;;;;;;;1.30;0.80;;;;;;;2.76;94.39;99065.56;213977;1312;22460;-74
2023/01/06 01:15:48;;;;;;;1.60;0.80;;;;;;;2.68;94.33;99064.23;214203;1313;22462;-75
2023/01/06 01:20:52;;;;;;;2.90;1.50;;;;;;;2.58;94.21;99071.02;214113;1313;24337;-75
2023/01/06 01:25:55;;;;;;;3.40;1.40;;;;;;;2.49;94.23;99077.00;214052;1312;25324;-75
2023/01/06 01:31:01;;;;;;;2.90;1.20;;;;;;;2.41;94.22;99085.05;214041;1313;22463;-74
2023/01/06 01:36:13;;;;;;;4.20;1.30;;;;;;;2.31;94.22;99091.05;213921;1313;25355;-75
2023/01/06 01:41:18;;;;;;;2.20;1.40;;;;;;;2.22;94.31;99101.23;214114;1310;22468;-75
2023/01/06 01:46:38;;;;;;;5.00;1.70;;;;;;;2.13;94.38;99103.23;214047;1311;22471;-74
2023/01/06 01:51:42;;;;;;;5.00;1.70;;;;;;;2.06;94.41;99110.77;213947;1313;24456;-76
2023/01/06 01:56:48;;;;;;;3.90;1.50;;;;;;;2.06;94.51;99119.17;213985;1311;25252;-75
2023/01/06 02:01:51;;;;;;;3.80;2.30;;;;;;;2.11;94.75;99123.67;213812;1312;25799;-75
2023/01/06 02:06:54;;;;;;;7.10;2.20;;;;;;;2.16;94.63;99127.78;213996;1311;24760;-75
2023/01/06 02:11:56;;;;;;;3.80;1.90;;;;;;;2.23;94.79;99129.02;214023;1312;25389;-75
2023/01/06 02:17:21;;;;;;;5.30;2.20;;;;;;;2.31;94.83;99124.00;214151;1291;22585;-74
2023/01/06 02:22:42;;;;;;;3.60;1.80;;;;;;;2.38;94.91;99129.02;214167;1311;23752;-74
2023/01/06 02:28:00;;;;;;;3.50;1.80;;;;;;;2.42;94.83;99116.32;214008;1312;22413;-74
2023/01/06 02:33:28;;;;;;;4.70;2.10;;;;;;;2.36;94.61;99119.16;214136;1313;22467;-75
2023/01/06 02:38:45;;;;;;;4.90;2.30;;;;;;;2.24;94.51;99122.70;214003;1312;22609;-74
2023/01/06 02:44:00;;;;;;;8.70;2.00;;;;;;;2.13;94.52;99128.08;214235;1310;22654;-75
2023/01/06 02:49:21;;;;;;;4.20;1.80;;;;;;;2.01;94.55;99135.79;214264;1288;25556;-74
2023/01/06 02:54:41;;;;;;;1.90;1.50;;;;;;;1.87;94.58;99144.26;214139;1313;25313;-74
2023/01/06 03:00:02;;;;;;;6.60;2.00;;;;;;;1.76;94.50;99146.94;214259;1298;22516;-77
2023/01/06 03:05:10;;;;;;;5.30;2.30;;;;;;;1.65;94.80;99148.20;214216;1308;22488;-74
2023/01/06 03:10:15;;;;;;;5.00;2.20;;;;;;;1.55;94.76;99148.77;214119;1309;24343;-74
2023/01/06 03:15:19;;;;;;;6.40;2.40;;;;;;;1.46;94.77;99148.25;213927;1313;22973;-74
2023/01/06 03:20:22;;;;;;;4.10;2.30;;;;;;;1.38;95.02;99143.78;214058;1312;22473;-74
2023/01/06 03:25:24;;;;;;;4.90;2.60;;;;;;;1.29;94.95;99143.59;213998;1311;22520;-73
2023/01/06 03:30:40;;;;;;;6.00;2.90;;;;;;;1.22;95.18;99143.05;214044;1311;23769;-73
2023/01/06 03:36:04;;;;;;;5.20;2.50;;;;;;;1.14;95.41;99142.51;214200;1311;23695;-74
2023/01/06 03:47:03;;;;;;;9.90;4.90;;;;;;;1.12;95.31;99160.95;214186;1311;25335;-74
2023/01/06 03:52:27;;;;;;;10.20;4.80;;;;;;;1.21;95.76;99160.08;214159;1311;25398;-75
2023/01/06 03:57:41;;;;;;;12.40;4.70;;;;;;;1.31;95.82;99166.34;214253;1311;25317;-73
2023/01/06 04:02:45;;;;;;;9.20;4.50;;;;;;;1.41;95.80;99161.83;214143;1310;24470;-74
2023/01/06 04:07:50;;;;;;;13.40;4.80;;;;;;;1.47;95.71;99162.66;214189;1311;22918;-74
2023/01/06 04:12:53;;;;;;;10.10;4.60;;;;;;;1.55;95.87;99155.80;214190;1312;23117;-74
2023/01/06 04:17:58;;;;;;;8.10;4.20;;;;;;;1.62;95.97;99152.67;213951;1313;25287;-75
2023/01/06 04:23:02;;;;;;;8.70;4.30;;;;;;;1.69;95.76;99153.66;214307;1313;23681;-75
2023/01/06 04:28:08;;;;;;;8.60;4.40;;;;;;;1.73;95.80;99150.36;214105;1312;22459;-75
2023/01/06 04:33:10;;;;;;;9.50;4.70;;;;;;;1.77;95.79;99154.58;213928;1309;22498;-74
2023/01/06 04:38:13;;;;;;;11.40;5.80;;;;;;;1.82;95.81;99157.61;213999;1312;25256;-75
2023/01/06 04:43:16;;;;;;;12.40;6.00;;;;;;;1.86;95.63;99162.96;213912;1313;22910;-75
2023/01/06 04:48:18;;;;;;;14.00;6.30;;;;;;;1.88;95.64;99163.55;214162;1313;22472;-74
2023/01/06 04:53:20;;;;;;;13.20;7.00;;;;;;;1.90;95.51;99163.98;214003;1304;24284;-74
2023/01/06 04:58:22;;;;;;;12.80;6.40;;;;;;;1.93;95.63;99166.42;213944;1313;25356;-74
2023/01/06 05:03:24;;;;;;;11.30;5.70;;;;;;;1.96;95.60;99173.54;214155;1311;25316;-74
2023/01/06 05:08:25;;;;;;;16.90;8.70;;;;;;;1.96;95.48;99177.97;213981;1311;23765;-74
2023/01/06 05:13:29;;;;;;;14.20;6.70;;;;;;;1.93;95.37;99180.16;214066;1312;25488;-74
2023/01/06 05:18:32;;;;;;;12.20;6.20;;;;;;;1.94;95.46;99183.69;214252;1288;22586;-73
2023/01/06 05:23:35;;;;;;;14.10;6.30;;;;;;;1.98;95.69;99181.48;214092;1313;22520;-74
2023/01/06 05:28:37;;;;;;;13.70;7.10;;;;;;;2.01;95.54;99180.91;213935;1313;23748;-76
2023/01/06 05:33:39;;;;;;;12.00;6.20;;;;;;;1.97;95.37;99185.16;214172;1313;22462;-74
2023/01/06 05:38:41;;;;;;;14.20;6.20;;;;;;;1.92;95.30;99191.23;214058;1312;22509;-74
2023/01/06 05:43:43;;;;;;;10.60;5.60;;;;;;;1.86;95.18;99195.15;213961;1311;22957;-74
2023/01/06 05:48:45;;;;;;;9.70;3.70;;;;;;;1.82;95.25;99200.40;214055;1313;22513;-73
2023/01/06 05:53:47;;;;;;;8.70;3.50;;;;;;;1.79;95.24;99213.04;214025;1311;22587;-74
2023/01/06 05:58:51;;;;;;;5.40;2.90;;;;;;;1.82;95.55;99213.61;214074;1312;23903;-75
2023/01/06 06:03:54;;;;;;;5.50;2.90;;;;;;;1.84;95.51;99221.14;214078;1313;23245;-74
2023/01/06 06:08:57;;;;;;;5.90;3.10;;;;;;;1.85;95.37;99225.36;214052;1313;24334;-74
2023/01/06 06:13:59;;;;;;;8.70;3.70;;;;;;;1.87;95.34;99228.02;214034;1312;23798;-74
2023/01/06 06:19:00;;;;;;;9.40;3.50;;;;;;;1.91;95.57;99222.59;214234;1313;24073;-74
2023/01/06 06:24:02;;;;;;;9.80;4.50;;;;;;;1.94;95.64;99225.77;214278;1311;24244;-74
2023/01/06 06:29:05;;;;;;;10.60;5.00;;;;;;;1.97;95.47;99230.55;214070;1312;22946;-74
2023/01/06 06:34:11;;;;;;;11.50;5.10;;;;;;;2.04;95.85;99229.10;213972;1311;26467;-73
2023/01/06 06:39:13;;;;;;;11.90;5.90;;;;;;;2.12;96.09;99225.84;214142;1313;22497;-75
2023/01/06 06:44:15;;;;;;;18.80;6.20;;;;;;;2.17;95.81;99225.45;214036;1313;22500;-75
2023/01/06 06:49:16;;;;;;;9.10;5.20;;;;;;;2.20;95.66;99217.27;214288;1310;24301;-73
2023/01/06 06:54:18;;;;;;;16.20;6.40;;;;;;;2.23;95.50;99208.65;213950;1313;22505;-74
2023/01/06 06:59:20;;;;;;;12.30;7.40;;;;;;;2.27;95.49;99202.83;214189;1309;22497;-75
2023/01/06 07:04:22;;;;;;;15.00;7.60;;;;;;;2.25;95.06;99201.15;213830;1310;25228;-74
2023/01/06 07:09:23;;;;;;;8.90;4.80;;;;;;;2.24;95.20;99209.30;214091;1310;23145;-75
2023/01/06 07:14:25;;;;;;;7.10;4.10;;;;;;;2.23;95.11;99230.90;214116;1310;25402;-74
2023/01/06 07:19:27;;;;;;;7.70;3.60;;;;;;;2.22;94.94;99237.75;214019;1310;24354;-75
2023/01/06 07:24:29;;;;;;;8.20;3.70;;;;;;;2.24;95.07;99245.73;214110;1310;22458;-74
2023/01/06 07:29:31;;;;;;;12.60;4.80;;;;;;;2.27;95.14;99246.27;214249;1310;22503;-74
2023/01/06 07:34:32;;;;;;;10.00;4.20;;;;;;;2.33;95.29;99245.14;213991;1310;25283;-74
2023/01/06 07:39:34;;;;;;;14.40;5.10;;;;;;;2.45;95.51;99250.38;214023;1310;22485;-75
2023/01/06 07:44:36;;;;;;;14.00;6.70;;;;;;;2.57;95.75;99250.65;214282;1310;22683;-74
2023/01/06 07:49:38;;;;;;;39.20;18.70;;;;;;;2.73;95.88;99246.05;214011;1310;22956;-73
2023/01/06 07:54:40;;;;;;;26.20;13.10;;;;;;;2.86;95.61;99241.66;213955;1310;22473;-74
2023/01/06 07:59:41;;;;;;;20.60;10.80;;;;;;;2.99;95.49;99241.03;214064;1310;22464;-74
2023/01/06 08:04:43;;;;;;;28.60;13.50;;;;;;;3.08;95.32;99244.80;214014;1310;24247;-74
2023/01/06 08:09:45;;;;;;;25.90;11.50;;;;;;;3.22;95.41;99251.75;213950;1296;218946;-75
2023/01/06 08:14:47;;;;;;;31.80;14.40;;;;;;;3.35;95.02;99247.23;214214;1298;22624;-74
2023/01/06 08:19:49;;;;;;;40.80;18.70;;;;;;;3.47;94.76;99248.58;214105;1310;23192;-74
2023/01/06 08:24:50;;;;;;;34.70;16.60;;;;;;;3.63;94.97;99251.32;214004;1310;22516;-74
2023/01/06 08:29:54;;;;;;;16.70;9.00;;;;;;;3.81;95.15;99251.77;214058;1310;23738;-74
2023/01/06 08:34:55;;;;;;;27.00;12.00;;;;;;;3.90;94.56;99263.68;214227;1310;22466;-74
2023/01/06 08:39:57;;;;;;;21.60;9.40;;;;;;;4.00;94.75;99265.79;214028;1310;24234;-74
2023/01/06 08:44:59;;;;;;;14.20;7.20;;;;;;;3.98;93.86;99273.27;214009;1311;25327;-75
2023/01/06 08:50:01;;;;;;;17.40;9.00;;;;;;;3.89;93.46;99270.05;214224;1310;22609;-74
2023/01/06 08:55:03;;;;;;;16.40;9.00;;;;;;;3.98;94.32;99269.71;214037;1310;22471;-74
2023/01/06 09:00:06;;;;;;;17.10;8.70;;;;;;;4.01;93.66;99272.86;213790;1310;22507;-74
2023/01/06 09:05:09;;;;;;;13.20;8.00;;;;;;;3.97;93.11;99272.77;214165;1310;22588;-74
2023/01/06 09:10:10;;;;;;;23.20;11.60;;;;;;;3.89;92.50;99276.42;213966;1310;25284;-75
2023/01/06 09:15:13;;;;;;;26.50;14.50;;;;;;;3.91;93.19;99265.75;214063;1310;22483;-74
2023/01/06 09:20:14;;;;;;;32.00;16.30;;;;;;;4.02;93.70;99262.96;214158;1310;24436;-74
2023/01/06 09:25:17;;;;;;;33.00;15.10;;;;;;;4.19;93.89;99268.05;214092;1310;22487;-74
2023/01/06 09:30:19;;;;;;;26.40;13.60;;;;;;;4.35;93.72;99255.72;214162;1310;25328;-74
2023/01/06 09:35:20;;;;;;;21.00;9.40;;;;;;;4.46;93.42;99246.77;213912;1310;22469;-75
2023/01/06 09:40:30;;;;;;;23.20;10.90;;;;;;;4.50;93.29;99235.17;214010;1310;22486;-75
2023/01/06 09:45:43;;;;;;;20.70;10.20;;;;;;;4.61;93.06;99241.30;214063;1310;25208;-75
2023/01/06 09:50:54;;;;;;;15.10;6.60;;;;;;;4.69;92.55;99231.58;214173;1310;22604;-74
2023/01/06 09:56:04;;;;;;;12.10;6.40;;;;;;;4.79;92.51;99214.13;214078;1310;25315;-74
2023/01/06 10:01:11;;;;;;;26.10;11.20;;;;;;;4.97;92.54;99201.63;214381;1309;22744;-75
2023/01/06 10:06:39;;;;;;;26.10;13.40;;;;;;;5.25;93.04;99191.39;214097;1310;25466;-74
2023/01/06 10:12:06;;;;;;;27.90;13.50;;;;;;;5.53;92.63;99185.73;214249;1310;22488;-75
2023/01/06 10:17:23;;;;;;;19.90;9.70;;;;;;;5.75;92.36;99176.02;214070;1310;22584;-75
2023/01/06 10:22:39;;;;;;;13.60;7.00;;;;;;;5.82;90.76;99172.19;214029;1310;24312;-75
2023/01/06 10:27:52;;;;;;;13.60;6.60;;;;;;;5.61;89.74;99163.94;213902;1300;22523;-74
2023/01/06 10:32:55;;;;;;;19.30;9.70;;;;;;;5.53;90.57;99150.65;213985;1310;24331;-76
2023/01/06 10:38:02;;;;;;;23.40;12.20;;;;;;;5.63;90.93;99155.62;213899;1310;25382;-75
2023/01/06 10:43:13;;;;;;;16.80;9.70;;;;;;;5.77;91.11;99147.70;213956;1310;25473;-75
2023/01/06 10:48:23;;;;;;;15.00;7.70;;;;;;;5.75;89.65;99136.27;214150;1309;25443;-75
2023/01/06 10:53:25;;;;;;;14.60;6.60;;;;;;;5.63;89.36;99131.12;214190;1310;22472;-74
2023/01/06 10:58:44;;;;;;;10.70;5.90;;;;;;;5.60;89.33;99121.25;213968;1310;22469;-75
2023/01/06 11:04:02;;;;;;;12.20;6.30;;;;;;;5.58;89.63;99113.30;213891;1310;25562;-74
2023/01/06 11:09:22;;;;;;;14.40;7.90;;;;;;;5.71;89.87;99112.93;213933;1310;22463;-75
2023/01/06 11:14:29;;;;;;;17.80;9.50;;;;;;;6.04;90.67;99117.83;214074;1310;22469;-74
2023/01/06 11:20:23;;;;;;;12.60;6.40;;;;;;;6.30;89.69;99107.05;213841;1310;25294;-74
2023/01/06 11:25:29;;;;;;;14.30;6.80;;;;;;;6.29;88.56;99102.08;213455;1310;22501;-75
2023/01/06 11:30:43;;;;;;;8.90;5.30;;;;;;;6.34;88.73;99097.28;214005;1310;22491;-74
2023/01/06 11:35:46;;;;;;;9.40;5.50;;;;;;;6.36;88.25;99092.77;214130;1310;22626;-75
2023/01/06 11:40:50;;;;;;;11.30;6.10;;;;;;;6.36;88.72;99087.61;214024;1307;22478;-72
2023/01/06 11:45:56;;;;;;;10.70;5.60;;;;;;;6.30;87.87;99078.09;214080;1304;22582;-72
2023/01/06 11:51:00;;;;;;;12.10;6.50;;;;;;;6.33;88.64;99060.66;214103;1310;24289;-71
2023/01/06 11:56:17;;;;;;;11.00;5.40;;;;;;;6.43;88.30;99049.52;213897;1310;22512;-73
2023/01/06 12:01:41;;;;;;;11.20;5.60;;;;;;;6.54;88.05;99048.05;214151;1310;24832;-70
2023/01/06 12:06:44;;;;;;;7.30;4.60;;;;;;;6.55;87.58;99057.70;214212;1310;24280;-72
2023/01/06 12:11:49;;;;;;;9.00;5.10;;;;;;;6.56;87.78;99055.59;214156;1310;22548;-72
2023/01/06 12:17:05;;;;;;;8.90;4.50;;;;;;;6.48;86.88;99051.73;214247;1310;22597;-72
2023/01/06 12:22:42;;;;;;;8.70;4.20;;;;;;;6.47;87.37;99053.12;214057;1310;22519;-72
2023/01/06 12:27:50;;;;;;;8.60;4.20;;;;;;;6.46;87.33;99053.91;213972;1310;25379;-72
2023/01/06 12:32:55;;;;;;;14.10;5.50;;;;;;;6.47;87.43;99043.70;214177;1310;24568;-72
2023/01/06 12:38:26;;;;;;;9.00;5.40;;;;;;;6.54;87.91;99025.10;214064;1310;22489;-72
2023/01/06 12:43:32;;;;;;;10.60;5.40;;;;;;;6.63;87.63;99012.34;214078;1310;22682;-71
2023/01/06 12:49:02;;;;;;;8.30;4.80;;;;;;;6.68;87.68;99009.66;214074;1310;24250;-72
2023/01/06 12:54:23;;;;;;;8.20;4.60;;;;;;;6.71;87.65;98996.10;214071;1310;22508;-72
2023/01/06 12:59:33;;;;;;;13.00;6.30;;;;;;;6.76;87.58;98990.48;214175;1310;22543;-72
2023/01/06 13:04:47;;;;;;;9.70;5.00;;;;;;;6.82;87.79;98987.80;214211;1310;22508;-73
2023/01/06 13:10:14;;;;;;;10.60;5.50;;;;;;;6.85;87.51;98978.67;214011;1310;25353;-72
2023/01/06 13:15:27;;;;;;;9.60;5.00;;;;;;;6.88;87.76;98972.81;214041;1310;22512;-73
2023/01/06 13:20:54;;;;;;;13.20;7.50;;;;;;;6.86;87.60;98971.16;213970;1310;22479;-72
2023/01/06 13:26:22;;;;;;;12.20;6.60;;;;;;;6.81;87.89;98961.64;214155;1310;22537;-72
2023/01/06 13:31:39;;;;;;;13.00;6.50;;;;;;;6.80;88.05;98956.58;214213;1310;24054;-72
2023/01/06 13:37:08;;;;;;;14.40;6.90;;;;;;;6.84;88.37;98946.91;214128;1310;23886;-73
2023/01/06 13:42:16;;;;;;;13.60;5.80;;;;;;;6.89;88.65;98932.71;214255;1310;22477;-71
2023/01/06 13:47:22;;;;;;;10.40;6.20;;;;;;;6.87;88.39;98935.05;214084;1310;22489;-72
2023/01/06 13:52:28;;;;;;;9.00;5.00;;;;;;;6.79;88.43;98933.36;214238;1310;24366;-71
2023/01/06 13:57:36;;;;;;;9.00;4.00;;;;;;;6.74;88.57;98920.98;214241;1310;22600;-71
2023/01/06 14:02:37;;;;;;;7.30;4.10;;;;;;;6.66;88.41;98913.55;213935;1310;22937;-73
2023/01/06 14:07:51;;;;;;;9.00;3.70;;;;;;;6.59;88.53;98930.33;214166;1310;23758;-72
2023/01/06 14:12:54;;;;;;;7.60;3.70;;;;;;;6.52;88.91;98925.18;214026;1310;23351;-73
2023/01/06 14:17:57;;;;;;;7.90;4.20;;;;;;;6.47;89.13;98916.75;213988;1310;22607;-72
2023/01/06 14:23:13;;;;;;;8.90;5.20;;;;;;;6.45;89.48;98926.30;214209;1310;22465;-71
2023/01/06 14:28:17;;;;;;;7.90;3.90;;;;;;;6.44;89.48;98925.88;214097;1310;25424;-72
2023/01/06 14:33:28;;;;;;;10.90;4.50;;;;;;;6.45;89.99;98922.31;214150;1310;24318;-73
2023/01/06 14:38:43;;;;;;;10.10;4.50;;;;;;;6.44;90.18;98911.61;214104;1310;22535;-71
2023/01/06 14:43:55;;;;;;;10.20;4.70;;;;;;;6.41;90.68;98904.09;213963;1310;23232;-71
2023/01/06 14:49:01;;;;;;;10.50;4.90;;;;;;;6.36;91.19;98900.55;214169;1310;22510;-71
2023/01/06 14:54:20;;;;;;;6.70;4.30;;;;;;;6.28;91.33;98893.64;214230;1310;22517;-72
2023/01/06 14:59:22;;;;;;;11.80;5.90;;;;;;;6.23;91.94;98895.48;214294;1310;24394;-71
2023/01/06 15:04:33;;;;;;;9.70;5.60;;;;;;;6.21;91.91;98883.86;214186;1310;22500;-71
2023/01/06 15:09:35;;;;;;;11.10;5.20;;;;;;;6.19;92.07;98878.63;213980;1310;22506;-72
2023/01/06 15:14:37;;;;;;;9.30;4.90;;;;;;;6.19;92.08;98891.89;213959;1298;22480;-71
2023/01/06 15:19:42;;;;;;;14.50;5.60;;;;;;;6.19;92.33;98899.23;213989;1310;24245;-72
2023/01/06 15:24:46;;;;;;;10.80;6.00;;;;;;;6.19;92.56;98887.30;214275;1310;22524;-71
2023/01/06 15:29:53;;;;;;;10.60;5.10;;;;;;;6.20;92.82;98892.20;214204;1310;22491;-71
2023/01/06 15:34:58;;;;;;;11.80;5.10;;;;;;;6.20;93.04;98884.70;214196;1310;24273;-72
2023/01/06 15:40:00;;;;;;;11.00;5.00;;;;;;;6.20;93.04;98863.27;214194;1310;24522;-72
2023/01/06 15:45:03;;;;;;;10.50;4.40;;;;;;;6.19;93.33;98854.75;213895;1310;22471;-71
2023/01/06 15:50:19;;;;;;;12.40;5.60;;;;;;;6.17;93.44;98852.40;213957;1311;22469;-72
2023/01/06 15:55:27;;;;;;;8.50;4.40;;;;;;;6.17;93.53;98858.95;214024;1310;24293;-71
2023/01/06 16:00:43;;;;;;;11.00;4.70;;;;;;;6.18;93.92;98861.39;214027;1310;22519;-70
2023/01/06 16:05:47;;;;;;;11.00;5.20;;;;;;;6.20;93.93;98863.68;214102;1310;22509;-72
2023/01/06 16:11:15;;;;;;;8.20;4.10;;;;;;;6.21;94.11;98854.23;214109;1310;22470;-72
2023/01/06 16:16:18;;;;;;;9.20;5.00;;;;;;;6.21;94.29;98861.84;214073;1310;22498;-71
2023/01/06 16:21:27;;;;;;;11.50;5.90;;;;;;;6.20;94.67;98863.80;214017;1310;25401;-75
2023/01/06 16:26:45;;;;;;;12.50;5.20;;;;;;;6.19;94.87;98860.55;214016;1310;22463;-72
2023/01/06 16:31:46;;;;;;;12.60;5.40;;;;;;;6.16;95.00;98865.00;214124;1310;24427;-72
2023/01/06 16:36:51;;;;;;;10.70;5.00;;;;;;;6.15;95.34;98865.57;214062;1310;22535;-72
2023/01/06 16:41:59;;;;;;;12.20;5.20;;;;;;;6.17;95.48;98870.44;214123;1310;23993;-72
2023/01/06 16:47:01;;;;;;;10.70;5.00;;;;;;;6.19;95.85;98861.34;214201;1311;22566;-72
2023/01/06 16:52:03;;;;;;;8.40;5.10;;;;;;;6.21;96.14;98850.02;214001;1310;22974;-71
2023/01/06 16:57:08;;;;;;;14.90;6.20;;;;;;;6.19;96.39;98854.85;213970;1298;22492;-70
2023/01/06 17:02:15;;;;;;;12.50;6.20;;;;;;;6.22;96.31;98858.54;214609;1304;26510;-71
2023/01/06 17:07:17;;;;;;;11.40;5.60;;;;;;;6.24;97.37;98868.23;214390;1309;22481;-71
2023/01/06 17:17:39;;;;;;;13.00;4.80;;;;;;;6.23;98.54;98864.99;214557;1308;22519;-72
2023/01/06 17:22:42;;;;;;;14.00;6.30;;;;;;;6.23;98.96;98872.75;213969;1310;23235;-72
2023/01/06 17:27:46;;;;;;;16.40;6.40;;;;;;;6.20;99.79;98860.29;214215;1304;24433;-72
2023/01/06 17:32:49;;;;;;;13.80;6.50;;;;;;;6.14;99.80;98852.54;214046;1297;22482;-72
2023/01/06 17:37:52;;;;;;;11.30;6.80;;;;;;;6.10;99.90;98857.08;214163;1310;25212;-72
2023/01/06 17:43:08;;;;;;;17.00;9.00;;;;;;;6.07;100.00;98864.35;214103;1297;22644;-72
2023/01/06 17:48:12;;;;;;;15.60;8.40;;;;;;;6.03;100.00;98866.25;213937;1310;23233;-71
2023/01/06 17:58:42;;;;;;;16.50;9.20;;;;;;;6.00;100.00;98856.06;214084;1310;22476;-73
2023/01/06 18:03:45;;;;;;;16.80;8.60;;;;;;;6.01;100.00;98853.36;214142;1310;25345;-72
2023/01/06 18:08:50;;;;;;;16.40;8.10;;;;;;;6.01;100.00;98845.33;214260;1310;24074;-72
2023/01/06 18:13:53;;;;;;;22.90;9.90;;;;;;;6.04;100.00;98855.17;213983;1310;24439;-72
2023/01/06 18:19:17;;;;;;;18.20;9.00;;;;;;;6.08;100.00;98857.70;213888;1310;25416;-73
2023/01/06 18:24:29;;;;;;;19.10;8.70;;;;;;;6.11;100.00;98859.34;213969;1310;22606;-73
2023/01/06 18:29:36;;;;;;;15.80;8.30;;;;;;;6.15;100.00;98865.79;214090;1310;25201;-73
2023/01/06 18:34:41;;;;;;;16.90;9.10;;;;;;;6.20;100.00;98866.37;213740;1310;22908;-73
2023/01/06 18:39:51;;;;;;;18.70;10.30;;;;;;;6.24;100.00;98866.74;214070;1310;22609;-74
2023/01/06 18:45:21;;;;;;;15.50;8.30;;;;;;;6.28;100.00;98868.67;214134;1310;23247;-74
2023/01/06 18:50:23;;;;;;;;;;;;;;;6.29;100.00;98865.23;214310;1310;24318;-74
2023/01/06 18:55:32;;;;;;;17.10;8.30;;;;;;;6.30;100.00;98870.89;214146;1309;22489;-74
2023/01/06 19:00:41;;;;;;;20.10;9.30;;;;;;;6.31;100.00;98872.54;214150;1310;23234;-74
2023/01/06 19:05:44;;;;;;;16.60;9.40;;;;;;;6.32;100.00;98875.68;213782;1310;22464;-74
2023/01/06 19:10:48;;;;;;;16.80;7.60;;;;;;;6.34;100.00;98877.50;214011;1310;24072;-74
2023/01/06 19:15:50;;;;;;;15.10;8.00;;;;;;;6.39;100.00;98881.09;214042;1310;25269;-74
2023/01/06 19:20:52;;;;;;;15.30;7.90;;;;;;;6.43;100.00;98885.31;214205;1310;24353;-74
2023/01/06 19:26:04;;;;;;;15.20;8.70;;;;;;;6.46;100.00;98887.10;214000;1310;22578;-74
2023/01/06 19:31:18;;;;;;;20.10;10.10;;;;;;;6.47;100.00;98886.56;214007;1307;22665;-77
2023/01/06 19:36:38;;;;;;;22.70;11.90;;;;;;;6.50;100.00;98895.05;213920;1310;22487;-74
2023/01/06 19:41:40;;;;;;;22.40;11.80;;;;;;;6.57;100.00;98903.71;213992;1312;25388;-74
2023/01/06 19:46:45;;;;;;;26.80;13.30;;;;;;;6.61;100.00;98907.45;214000;1312;23554;-74
2023/01/06 19:51:49;;;;;;;22.40;10.00;;;;;;;6.65;100.00;98913.42;213907;1310;26323;-75
2023/01/06 19:56:53;;;;;;;18.80;9.70;;;;;;;6.63;100.00;98921.89;214057;1311;23098;-74
2023/01/06 20:02:02;;;;;;;20.20;10.80;;;;;;;6.61;100.00;98924.91;214005;1312;24599;-74
2023/01/06 20:07:04;;;;;;;17.70;9.30;;;;;;;6.60;100.00;98927.41;213748;1313;128121;-74
2023/01/06 20:12:06;;;;;;;21.30;10.90;;;;;;;6.60;100.00;98932.02;213988;1310;22550;-73
2023/01/06 20:17:09;;;;;;;20.00;10.20;;;;;;;6.59;100.00;98941.93;213932;1309;24274;-74
2023/01/06 20:22:11;;;;;;;11.90;7.40;;;;;;;6.58;100.00;98943.36;214141;1281;24313;-73
2023/01/06 20:27:13;;;;;;;18.30;11.10;;;;;;;6.57;100.00;98945.06;213968;1312;22475;-73
2023/01/06 20:32:15;;;;;;;19.40;10.80;;;;;;;6.59;100.00;98947.25;214049;1311;22490;-73
2023/01/06 20:37:17;;;;;;;23.10;12.10;;;;;;;6.60;100.00;98955.73;213974;1310;22513;-74
2023/01/06 20:42:20;;;;;;;21.40;12.30;;;;;;;6.61;100.00;98953.40;213986;1312;24433;-74
2023/01/06 20:47:22;;;;;;;19.80;11.20;;;;;;;6.63;100.00;98960.55;214020;1312;23879;-74
2023/01/06 20:52:23;;;;;;;19.10;10.30;;;;;;;6.63;100.00;98968.63;214128;1312;22653;-75
2023/01/06 20:57:25;;;;;;;18.90;10.80;;;;;;;6.65;100.00;98965.02;213983;1307;22594;-73
2023/01/06 21:02:27;;;;;;;17.40;10.40;;;;;;;6.67;100.00;98969.46;213987;1312;25309;-74
2023/01/06 21:07:29;;;;;;;15.10;8.50;;;;;;;6.70;100.00;98965.21;214208;1311;25222;-73
2023/01/06 21:12:31;;;;;;;13.70;7.90;;;;;;;6.72;100.00;98965.91;213897;1312;24487;-74
2023/01/06 21:17:33;;;;;;;14.70;8.40;;;;;;;6.74;100.00;98974.34;214090;1312;22485;-74
2023/01/06 21:22:35;;;;;;;12.60;8.00;;;;;;;6.75;100.00;98979.58;214020;1312;22503;-74
2023/01/06 21:27:37;;;;;;;10.00;6.60;;;;;;;6.77;100.00;98976.17;214183;1313;25025;-73
2023/01/06 21:32:38;;;;;;;10.10;6.90;;;;;;;6.78;100.00;98975.59;214066;1313;22976;-74
2023/01/06 21:37:40;;;;;;;10.00;6.10;;;;;;;6.79;100.00;98979.53;214049;1312;25413;-73
2023/01/06 21:48:05;;;;;;;16.50;9.00;;;;;;;6.74;100.00;98964.70;214088;1311;24297;-74
2023/01/06 21:53:09;;;;;;;15.60;9.60;;;;;;;6.68;100.00;98967.75;214383;1313;24425;-74
2023/01/06 21:58:11;;;;;;;20.90;10.80;;;;;;;6.64;100.00;98975.03;214139;1312;25297;-74
2023/01/06 22:03:13;;;;;;;19.10;9.90;;;;;;;6.63;100.00;98982.21;214231;1313;22461;-75
2023/01/06 22:08:16;;;;;;;14.90;8.60;;;;;;;6.62;100.00;98988.70;214022;1311;22559;-74
2023/01/06 22:13:24;;;;;;;17.10;9.70;;;;;;;6.59;100.00;98998.21;214256;1313;22487;-74
2023/01/06 22:18:26;;;;;;;15.90;9.50;;;;;;;6.55;100.00;98995.59;214051;1312;22469;-74
2023/01/06 22:23:31;;;;;;;22.90;12.00;;;;;;;6.52;100.00;98996.46;214187;1313;25325;-74
2023/01/06 22:28:33;;;;;;;26.30;12.80;;;;;;;6.52;100.00;98997.05;214354;1313;24285;-73
2023/01/06 22:33:35;;;;;;;22.70;11.00;;;;;;;6.51;100.00;98995.48;214044;1312;22464;-74
2023/01/06 22:38:37;;;;;;;27.60;13.00;;;;;;;6.48;100.00;99009.69;213975;1312;23937;-74
2023/01/06 22:43:39;;;;;;;34.00;15.00;;;;;;;6.48;100.00;99011.49;214013;1312;26373;-74
2023/01/06 22:48:46;;;;;;;19.10;9.80;;;;;;;6.50;100.00;99018.64;213807;1311;22482;-75
2023/01/06 22:53:48;;;;;;;27.70;13.70;;;;;;;6.49;100.00;99016.52;214061;1312;22470;-74
2023/01/06 22:58:50;;;;;;;22.70;11.70;;;;;;;6.46;100.00;99023.77;214030;1310;22529;-75
2023/01/06 23:03:51;;;;;;;21.60;11.40;;;;;;;6.41;100.00;99024.59;214126;1311;22502;-74
2023/01/06 23:08:53;;;;;;;20.70;11.40;;;;;;;6.38;100.00;99023.77;214270;1311;24491;-74
2023/01/06 23:14:01;;;;;;;19.10;10.20;;;;;;;6.36;100.00;99024.98;214179;1313;25409;-74
2023/01/06 23:19:03;;;;;;;19.40;10.90;;;;;;;6.34;100.00;99034.21;214045;1298;22482;-74
2023/01/06 23:24:07;;;;;;;16.30;9.70;;;;;;;6.30;100.00;99039.05;214015;1313;22470;-74
2023/01/06 23:29:10;;;;;;;19.60;9.90;;;;;;;6.24;100.00;99040.73;214170;1312;25373;-75
2023/01/06 23:34:15;;;;;;;11.80;7.50;;;;;;;6.20;100.00;99039.96;214181;1312;22507;-74
2023/01/06 23:39:16;;;;;;;13.90;7.70;;;;;;;6.13;100.00;99041.44;214140;1307;22618;-74
2023/01/06 23:44:18;;;;;;;16.10;8.70;;;;;;;6.08;100.00;99044.48;214179;1310;22463;-74
2023/01/06 23:49:20;;;;;;;17.50;9.30;;;;;;;6.04;100.00;99043.33;213975;1312;24482;-75
2023/01/06 23:54:22;;;;;;;15.20;8.70;;;;;;;5.99;100.00;99043.68;214114;1313;24474;-75
2023/01/06 23:59:24;;;;;;;11.60;7.10;;;;;;;5.95;100.00;99039.42;214092;1310;22939;-75
